Time;durP1;ratioP1;P1;durP2;ratioP2;P2;SDS_P1;SDS_P2;PMS_P1;PMS_P2;Temp;Humidity;BMP_temperature;BMP_pressure;BME280_temperature;BME280_humidity;BME280_pressure;Samples;Min_cycle;Max_cycle;Signal;HPM_P1;HPM_P2
2023/11/03 00:02:24;;;;;;;9.10;3.28;;;28.50;23.30;;;;;;4994814;28;20104;-62
2023/11/03 00:04:51;;;;;;;13.10;3.13;;;28.30;23.20;;;;;;5000140;28;20050;-63
2023/11/03 00:07:19;;;;;;;14.32;3.00;;;28.30;23.40;;;;;;4990195;28;20085;-62
2023/11/03 00:09:45;;;;;;;11.63;3.38;;;28.30;23.60;;;;;;4987752;28;20078;-65
2023/11/03 00:12:13;;;;;;;11.27;3.25;;;28.30;23.60;;;;;;5001334;28;20063;-63
2023/11/03 00:14:40;;;;;;;10.50;2.83;;;28.10;23.70;;;;;;4991132;28;20063;-62
2023/11/03 00:17:06;;;;;;;10.98;3.17;;;28.10;24.00;;;;;;4990636;28;20068;-63
2023/11/03 00:19:33;;;;;;;20.08;3.42;;;28.10;24.00;;;;;;4996331;28;20057;-63
2023/11/03 00:22:00;;;;;;;20.50;3.47;;;28.00;24.20;;;;;;4987256;28;20055;-63
2023/11/03 00:24:26;;;;;;;13.23;3.28;;;27.80;25.00;;;;;;4989133;28;20492;-62
2023/11/03 00:26:54;;;;;;;10.43;3.35;;;27.70;25.80;;;;;;4985788;28;20074;-64
2023/11/03 00:29:24;;;;;;;12.82;3.45;;;27.60;25.30;;;;;;4992286;28;20072;-65
2023/11/03 00:31:51;;;;;;;11.68;3.72;;;27.40;25.30;;;;;;5003747;28;20066;-64
2023/11/03 00:34:18;;;;;;;13.40;3.67;;;27.30;25.90;;;;;;4994219;28;20068;-63
2023/11/03 00:36:48;;;;;;;27.73;3.83;;;27.20;25.90;;;;;;4995974;28;20477;-64
2023/11/03 00:39:18;;;;;;;22.15;4.05;;;27.00;26.00;;;;;;4988671;28;20069;-63
2023/11/03 00:41:48;;;;;;;17.30;4.43;;;26.90;26.40;;;;;;4998309;28;20068;-64
2023/11/03 00:44:15;;;;;;;18.08;4.45;;;26.70;26.10;;;;;;4992752;28;20059;-64
2023/11/03 00:46:42;;;;;;;19.20;3.97;;;26.50;26.00;;;;;;4989923;28;20483;-66
2023/11/03 00:49:10;;;;;;;26.00;3.92;;;26.30;26.20;;;;;;4998010;28;20167;-65
2023/11/03 00:51:36;;;;;;;25.25;4.55;;;26.20;26.50;;;;;;4986483;28;20073;-66
2023/11/03 00:54:04;;;;;;;26.63;5.18;;;26.00;27.20;;;;;;4987238;28;20064;-66
2023/11/03 00:56:31;;;;;;;22.63;5.47;;;25.90;27.30;;;;;;5011257;22;20104;-66
2023/11/03 00:58:57;;;;;;;29.38;5.72;;;25.70;27.00;;;;;;5006169;28;20104;-67
2023/11/03 01:01:24;;;;;;;37.90;5.90;;;25.60;27.20;;;;;;5010153;28;20062;-66
2023/11/03 01:03:53;;;;;;;34.40;6.47;;;25.40;27.50;;;;;;5008276;28;20070;-64
2023/11/03 01:06:19;;;;;;;29.20;8.02;;;25.30;27.80;;;;;;5003133;28;20104;-65
2023/11/03 01:08:51;;;;;;;47.08;8.05;;;25.10;28.10;;;;;;5001839;28;20084;-69
2023/11/03 01:11:23;;;;;;;44.67;8.43;;;24.90;28.40;;;;;;5004891;28;20538;-66
2023/11/03 01:13:50;;;;;;;50.15;8.90;;;24.80;29.10;;;;;;5001456;28;20081;-70
2023/11/03 01:16:17;;;;;;;60.40;10.25;;;24.70;29.50;;;;;;4999975;28;20892;-70
2023/11/03 01:18:45;;;;;;;43.08;8.65;;;24.50;29.60;;;;;;5006731;28;20099;-70
2023/11/03 01:21:18;;;;;;;46.10;8.70;;;24.40;29.60;;;;;;5000051;28;20071;-68
2023/11/03 01:23:49;;;;;;;43.80;9.18;;;24.30;29.80;;;;;;5000725;28;20086;-66
2023/11/03 01:26:16;;;;;;;50.15;8.80;;;24.20;29.70;;;;;;5002237;28;20083;-69
2023/11/03 01:28:43;;;;;;;38.10;8.35;;;24.10;30.40;;;;;;5010932;28;20105;-66
2023/11/03 01:31:11;;;;;;;46.28;9.63;;;23.90;30.70;;;;;;5004423;28;20085;-68
2023/11/03 01:33:42;;;;;;;59.88;8.82;;;23.90;31.90;;;;;;5002809;28;20136;-66
2023/11/03 01:36:08;;;;;;;37.55;7.95;;;23.80;31.60;;;;;;4999818;28;20077;-65
2023/11/03 01:38:35;;;;;;;51.33;8.45;;;23.60;31.10;;;;;;5001246;28;20080;-63
2023/11/03 01:41:02;;;;;;;49.55;7.93;;;23.60;31.10;;;;;;5002186;28;20074;-66
2023/11/03 01:43:30;;;;;;;30.52;6.82;;;23.50;31.20;;;;;;5004515;28;20558;-68
2023/11/03 01:45:58;;;;;;;40.85;7.90;;;23.40;31.40;;;;;;5002502;28;20555;-67
2023/11/03 01:48:31;;;;;;;42.17;8.65;;;23.30;31.70;;;;;;5001449;28;20087;-66
2023/11/03 01:51:00;;;;;;;52.83;9.98;;;23.20;32.20;;;;;;5003184;28;20081;-66
2023/11/03 01:53:29;;;;;;;49.08;10.05;;;23.10;33.20;;;;;;5003843;28;20074;-66
2023/11/03 01:55:56;;;;;;;40.70;9.23;;;23.00;33.40;;;;;;5000769;28;20098;-67
2023/11/03 01:58:23;;;;;;;36.80;8.60;;;22.90;32.80;;;;;;5003724;28;20078;-67
2023/11/03 02:00:51;;;;;;;32.80;7.70;;;22.90;33.00;;;;;;5001664;28;20085;-68
2023/11/03 02:03:17;;;;;;;40.17;8.68;;;22.80;33.10;;;;;;5009352;28;20492;-68
2023/11/03 02:05:44;;;;;;;35.45;8.70;;;22.70;33.20;;;;;;5003675;28;20082;-68
2023/11/03 02:08:11;;;;;;;36.58;8.27;;;22.70;33.20;;;;;;5000237;28;20083;-67
2023/11/03 02:10:42;;;;;;;51.72;8.77;;;22.60;33.60;;;;;;4998069;28;20553;-63
2023/11/03 02:13:10;;;;;;;60.10;9.68;;;22.50;34.00;;;;;;5001714;28;20102;-66
2023/11/03 02:15:39;;;;;;;55.50;9.73;;;22.50;34.30;;;;;;4996099;28;20114;-68
2023/11/03 02:18:08;;;;;;;48.30;10.27;;;22.40;34.20;;;;;;5003520;28;20234;-68
2023/11/03 02:20:35;;;;;;;55.05;10.63;;;22.30;34.30;;;;;;5000212;28;20095;-68
2023/11/03 02:23:02;;;;;;;51.83;9.45;;;22.20;34.50;;;;;;5002481;28;20144;-68
2023/11/03 02:25:31;;;;;;;54.15;9.20;;;22.20;35.00;;;;;;4996415;28;20085;-68
2023/11/03 02:27:57;;;;;;;53.95;10.70;;;22.10;35.30;;;;;;5000048;28;20596;-67
2023/11/03 02:30:25;;;;;;;46.42;10.23;;;22.10;35.80;;;;;;5001769;28;20089;-66
2023/11/03 02:32:52;;;;;;;51.47;10.90;;;22.00;35.30;;;;;;5002346;28;20082;-67
2023/11/03 02:35:19;;;;;;;64.72;13.18;;;21.90;35.50;;;;;;5005695;28;20094;-67
2023/11/03 02:37:45;;;;;;;47.22;10.77;;;21.90;35.70;;;;;;5001276;28;20186;-67
2023/11/03 02:40:15;;;;;;;58.05;10.77;;;21.80;35.90;;;;;;5004254;28;20118;-67
2023/11/03 02:42:43;;;;;;;61.17;11.48;;;21.80;36.70;;;;;;5001740;28;20070;-67
2023/11/03 02:45:12;;;;;;;66.22;11.05;;;21.70;36.60;;;;;;5006541;28;20594;-67
2023/11/03 02:47:39;;;;;;;49.80;10.95;;;21.70;37.30;;;;;;4999258;28;20090;-67
2023/11/03 02:50:06;;;;;;;59.58;12.15;;;21.70;37.80;;;;;;5000518;28;20105;-66
2023/11/03 02:52:32;;;;;;;68.60;13.05;;;21.60;38.00;;;;;;5000377;28;20505;-67
2023/11/03 02:54:59;;;;;;;61.72;13.02;;;21.60;38.30;;;;;;4999733;28;20073;-65
2023/11/03 02:57:25;;;;;;;55.17;12.38;;;21.40;38.60;;;;;;4997652;28;20126;-67
2023/11/03 02:59:52;;;;;;;68.20;13.63;;;21.40;38.70;;;;;;4999868;28;20081;-67
2023/11/03 03:02:18;;;;;;;75.20;12.88;;;21.30;38.70;;;;;;4998958;28;20079;-64
2023/11/03 03:04:45;;;;;;;61.38;12.82;;;21.20;39.20;;;;;;4997349;28;20072;-67
2023/11/03 03:07:12;;;;;;;63.78;12.82;;;21.20;39.00;;;;;;5002686;28;20135;-66
2023/11/03 03:09:38;;;;;;;67.65;13.10;;;21.10;39.10;;;;;;4999307;28;20443;-67
2023/11/03 03:12:05;;;;;;;62.65;11.55;;;21.10;40.30;;;;;;5003474;28;20554;-67
2023/11/03 03:14:31;;;;;;;54.75;12.52;;;21.00;39.70;;;;;;5000450;28;20171;-67
2023/11/03 03:17:00;;;;;;;46.70;11.77;;;20.90;39.30;;;;;;5001148;28;20162;-66
2023/11/03 03:19:26;;;;;;;45.47;11.77;;;20.90;39.50;;;;;;4996449;28;20108;-67
2023/11/03 03:21:53;;;;;;;60.13;12.40;;;20.80;39.60;;;;;;4990043;28;20076;-68
2023/11/03 03:24:19;;;;;;;47.55;12.00;;;20.80;41.00;;;;;;5001212;28;20085;-68
2023/11/03 03:26:46;;;;;;;46.10;11.50;;;20.70;40.40;;;;;;4992104;28;20101;-67
2023/11/03 03:29:13;;;;;;;34.45;11.40;;;20.60;40.20;;;;;;5002105;28;20112;-69
2023/11/03 03:31:39;;;;;;;52.97;15.88;;;20.60;40.10;;;;;;5000392;28;20454;-69
2023/11/03 03:34:06;;;;;;;54.53;18.13;;;20.50;40.00;;;;;;4996172;28;20104;-67
2023/11/03 03:36:32;;;;;;;55.28;19.70;;;20.50;40.10;;;;;;4990994;28;20089;-69
2023/11/03 03:38:59;;;;;;;44.47;16.45;;;20.40;40.00;;;;;;5000247;28;20107;-67
2023/11/03 03:41:25;;;;;;;52.30;13.55;;;20.40;41.10;;;;;;5000773;28;20146;-66
2023/11/03 03:43:52;;;;;;;34.42;13.00;;;20.30;40.40;;;;;;5001337;28;20079;-67
2023/11/03 03:46:18;;;;;;;58.70;13.73;;;20.30;40.20;;;;;;4999648;28;20127;-64
2023/11/03 03:48:45;;;;;;;50.78;15.68;;;20.20;40.10;;;;;;5002457;28;20109;-66
2023/11/03 03:51:11;;;;;;;69.97;18.15;;;20.20;40.10;;;;;;5000493;28;20081;-65
2023/11/03 03:53:37;;;;;;;53.25;15.82;;;20.20;41.20;;;;;;4999115;28;20099;-68
2023/11/03 03:56:05;;;;;;;50.08;15.13;;;20.20;41.10;;;;;;4997524;28;20191;-68
2023/11/03 03:58:31;;;;;;;60.45;14.30;;;20.10;40.90;;;;;;4996485;28;20586;-66
2023/11/03 04:00:58;;;;;;;40.90;13.63;;;20.00;40.90;;;;;;4999473;28;20104;-68
2023/11/03 04:03:24;;;;;;;43.10;13.57;;;20.00;41.50;;;;;;5005761;28;20092;-65
2023/11/03 04:05:51;;;;;;;49.85;14.32;;;20.00;41.50;;;;;;4998288;28;20073;-65
2023/11/03 04:08:17;;;;;;;51.58;13.20;;;19.90;41.80;;;;;;4998919;28;20084;-67
2023/11/03 04:10:44;;;;;;;50.35;14.60;;;19.90;42.00;;;;;;4996386;28;20084;-66
2023/11/03 04:13:10;;;;;;;48.80;14.93;;;19.90;41.80;;;;;;4997370;28;20152;-66
2023/11/03 04:15:37;;;;;;;57.97;16.70;;;19.80;41.70;;;;;;4997682;28;20078;-64
2023/11/03 04:18:04;;;;;;;55.95;15.93;;;19.70;42.00;;;;;;5001363;28;20088;-67
2023/11/03 04:20:30;;;;;;;58.25;16.67;;;19.70;41.90;;;;;;5006295;28;20080;-67
2023/11/03 04:22:57;;;;;;;69.22;18.75;;;19.70;41.80;;;;;;4996443;28;20420;-67
2023/11/03 04:25:23;;;;;;;72.15;19.52;;;19.60;42.10;;;;;;4996921;28;20647;-66
2023/11/03 04:27:50;;;;;;;72.45;18.55;;;19.60;42.40;;;;;;5000076;28;20088;-66
2023/11/03 04:30:16;;;;;;;67.05;18.33;;;19.50;42.50;;;;;;4995790;28;20080;-67
2023/11/03 04:32:43;;;;;;;67.70;20.27;;;19.50;42.90;;;;;;4999344;28;20091;-66
2023/11/03 04:35:09;;;;;;;82.97;21.45;;;19.40;42.90;;;;;;4993181;28;20387;-66
2023/11/03 04:37:36;;;;;;;97.22;24.10;;;19.40;43.40;;;;;;4993872;28;20092;-68
2023/11/03 04:40:02;;;;;;;112.78;24.10;;;19.30;43.10;;;;;;5006419;28;20105;-67
2023/11/03 04:42:29;;;;;;;100.95;23.95;;;19.30;43.50;;;;;;5001735;28;20170;-68
2023/11/03 04:44:56;;;;;;;87.40;25.70;;;19.30;43.30;;;;;;4999856;28;20548;-67
2023/11/03 04:47:22;;;;;;;107.78;29.33;;;19.20;43.30;;;;;;5005858;28;20116;-66
2023/11/03 04:49:49;;;;;;;121.63;33.30;;;19.20;43.80;;;;;;5001024;28;20076;-67
2023/11/03 04:52:16;;;;;;;124.78;35.38;;;19.20;44.00;;;;;;5003770;28;20169;-66
2023/11/03 04:54:42;;;;;;;147.60;39.53;;;19.10;43.50;;;;;;5005973;28;20463;-67
2023/11/03 04:57:09;;;;;;;145.68;40.67;;;19.00;43.90;;;;;;5003205;28;20191;-68
2023/11/03 04:59:36;;;;;;;134.15;40.92;;;19.00;44.00;;;;;;5005209;28;20111;-66
2023/11/03 05:02:04;;;;;;;150.55;41.40;;;19.00;44.20;;;;;;5008285;28;20550;-67
2023/11/03 05:04:30;;;;;;;135.85;41.35;;;18.90;44.90;;;;;;5002830;28;20072;-67
2023/11/03 05:06:57;;;;;;;139.45;42.70;;;18.90;44.40;;;;;;5002622;28;20573;-67
2023/11/03 05:09:23;;;;;;;151.70;42.47;;;18.90;44.50;;;;;;4998265;28;20086;-67
2023/11/03 05:11:50;;;;;;;154.73;40.53;;;18.90;44.40;;;;;;5004401;28;20167;-67
2023/11/03 05:14:16;;;;;;;147.15;41.25;;;18.90;44.40;;;;;;4999104;28;20080;-67
2023/11/03 05:16:42;;;;;;;157.77;39.42;;;18.80;44.00;;;;;;4993277;28;20147;-66
2023/11/03 05:19:09;;;;;;;144.05;39.65;;;18.80;44.50;;;;;;5006510;28;20089;-67
2023/11/03 05:21:36;;;;;;;126.82;37.97;;;18.80;44.80;;;;;;5008111;28;20568;-67
2023/11/03 05:24:02;;;;;;;137.32;37.33;;;18.80;44.40;;;;;;5001441;28;20182;-68
2023/11/03 05:26:29;;;;;;;164.57;40.22;;;18.80;44.50;;;;;;4999580;28;20132;-66
2023/11/03 05:28:56;;;;;;;160.02;39.05;;;18.70;44.50;;;;;;4996710;28;20145;-67
2023/11/03 05:31:23;;;;;;;171.45;39.78;;;18.70;44.40;;;;;;4998144;28;20544;-65
2023/11/03 05:33:50;;;;;;;133.23;36.85;;;18.80;44.50;;;;;;5002314;28;20093;-67
2023/11/03 05:36:16;;;;;;;155.45;39.40;;;18.70;44.70;;;;;;4995653;28;20095;-67
2023/11/03 05:38:42;;;;;;;143.52;40.22;;;18.80;44.70;;;;;;5011652;28;20088;-65
2023/11/03 05:41:11;;;;;;;168.55;42.42;;;18.70;44.80;;;;;;5006839;28;20080;-67
2023/11/03 05:43:37;;;;;;;170.23;40.90;;;18.70;45.10;;;;;;5002214;28;20116;-68
2023/11/03 05:46:04;;;;;;;162.82;40.58;;;18.70;45.00;;;;;;5001924;28;20077;-65
2023/11/03 05:48:31;;;;;;;141.48;38.30;;;18.60;45.00;;;;;;5001436;28;20196;-64
2023/11/03 05:50:57;;;;;;;135.73;38.75;;;18.60;45.80;;;;;;4999740;28;20414;-65
2023/11/03 05:53:23;;;;;;;144.75;38.05;;;18.50;45.20;;;;;;5000798;28;22076;-66
2023/11/03 05:55:50;;;;;;;138.40;37.45;;;18.50;45.30;;;;;;5000015;28;20104;-65
2023/11/03 05:58:17;;;;;;;157.68;37.50;;;18.50;45.30;;;;;;5000930;28;20097;-64
2023/11/03 06:00:43;;;;;;;176.93;37.00;;;18.50;45.60;;;;;;5001154;28;21304;-66
2023/11/03 06:03:10;;;;;;;144.45;37.05;;;18.50;45.80;;;;;;4998040;28;20084;-67
2023/11/03 06:05:36;;;;;;;139.48;36.50;;;18.40;45.60;;;;;;4999297;28;20159;-65
2023/11/03 06:08:03;;;;;;;115.53;34.45;;;18.40;45.70;;;;;;4998981;28;20077;-65
2023/11/03 06:10:29;;;;;;;133.80;34.28;;;18.30;45.60;;;;;;5000951;28;20085;-64
2023/11/03 06:12:56;;;;;;;139.18;33.85;;;18.30;45.60;;;;;;4998616;28;20077;-65
2023/11/03 06:15:23;;;;;;;131.40;34.47;;;18.20;45.60;;;;;;5000436;28;20487;-64
2023/11/03 06:17:50;;;;;;;123.88;33.83;;;18.20;46.10;;;;;;5000014;28;20149;-64
2023/11/03 06:20:16;;;;;;;121.90;33.35;;;18.20;46.00;;;;;;4999568;28;20575;-66
2023/11/03 06:22:43;;;;;;;119.65;31.30;;;18.20;46.00;;;;;;5004722;28;20078;-65
2023/11/03 06:25:09;;;;;;;97.63;30.33;;;18.20;45.70;;;;;;4999010;28;20077;-65
2023/11/03 06:27:36;;;;;;;107.53;30.10;;;18.10;45.70;;;;;;5004366;28;20085;-66
2023/11/03 06:30:03;;;;;;;135.88;33.13;;;18.10;45.80;;;;;;5001009;28;20077;-66
2023/11/03 06:32:30;;;;;;;133.40;33.95;;;18.10;46.10;;;;;;5003168;28;20447;-65
2023/11/03 06:34:56;;;;;;;133.75;34.25;;;18.00;46.50;;;;;;4994609;28;20548;-66
2023/11/03 06:37:23;;;;;;;121.30;34.92;;;18.00;46.90;;;;;;5000430;28;20096;-66
2023/11/03 06:39:51;;;;;;;125.47;33.55;;;18.00;46.50;;;;;;5002413;28;20131;-65
2023/11/03 06:42:18;;;;;;;117.90;31.65;;;18.00;47.00;;;;;;4999639;28;20721;-65
2023/11/03 06:44:45;;;;;;;113.05;31.45;;;17.90;46.70;;;;;;4992537;28;20104;-66
2023/11/03 06:47:11;;;;;;;116.05;28.80;;;17.90;46.30;;;;;;5006554;28;20089;-66
2023/11/03 06:49:38;;;;;;;96.07;28.17;;;17.90;46.20;;;;;;5000696;28;20090;-65
2023/11/03 06:52:05;;;;;;;97.18;28.60;;;17.90;46.40;;;;;;4997726;28;20095;-65
2023/11/03 06:54:32;;;;;;;105.82;30.25;;;17.90;46.90;;;;;;5000057;28;20480;-66
2023/11/03 06:56:58;;;;;;;117.70;28.33;;;17.80;47.30;;;;;;4997022;28;20137;-66
2023/11/03 06:59:25;;;;;;;88.50;27.88;;;17.80;47.20;;;;;;4999028;28;20102;-66
2023/11/03 07:01:52;;;;;;;114.72;28.13;;;17.70;47.10;;;;;;4995817;28;20579;-66
2023/11/03 07:04:18;;;;;;;100.25;28.40;;;17.70;47.90;;;;;;4998684;28;20077;-65
2023/11/03 07:06:45;;;;;;;92.75;27.20;;;17.70;47.50;;;;;;5002323;28;20089;-65
2023/11/03 07:09:11;;;;;;;77.55;24.73;;;17.70;47.00;;;;;;5006215;28;20088;-65
2023/11/03 07:11:38;;;;;;;99.30;24.67;;;17.70;46.20;;;;;;5000909;28;20169;-66
2023/11/03 07:14:05;;;;;;;104.18;25.73;;;17.70;46.40;;;;;;5000855;28;20095;-66
2023/11/03 07:16:33;;;;;;;96.15;25.38;;;17.60;47.40;;;;;;5001334;28;20097;-66
2023/11/03 07:19:00;;;;;;;87.20;25.15;;;17.60;47.10;;;;;;4997117;28;20088;-66
2023/11/03 07:21:26;;;;;;;85.22;23.30;;;17.50;47.00;;;;;;5005975;28;20107;-66
2023/11/03 07:23:53;;;;;;;93.65;23.05;;;17.50;46.90;;;;;;4998327;28;20099;-65
2023/11/03 07:26:19;;;;;;;76.95;24.20;;;17.50;46.50;;;;;;5000979;28;20107;-61
2023/11/03 07:28:46;;;;;;;65.47;20.88;;;17.50;46.40;;;;;;5001174;28;20105;-65
2023/11/03 07:31:12;;;;;;;67.43;21.58;;;17.50;46.10;;;;;;5000943;28;20553;-67
2023/11/03 07:33:42;;;;;;;66.80;20.55;;;17.50;46.90;;;;;;5006279;28;20130;-66
2023/11/03 07:36:10;;;;;;;75.80;23.05;;;17.50;46.40;;;;;;4990642;28;20106;-66
2023/11/03 07:38:36;;;;;;;77.55;21.65;;;17.40;46.20;;;;;;4999597;28;20081;-66
2023/11/03 07:41:07;;;;;;;78.47;22.10;;;17.40;46.30;;;;;;4997075;28;20089;-65
2023/11/03 07:43:37;;;;;;;76.78;23.15;;;17.40;47.00;;;;;;4998745;28;20621;-66
2023/11/03 07:46:04;;;;;;;77.10;24.13;;;17.30;47.00;;;;;;5002678;28;20615;-65
2023/11/03 07:48:30;;;;;;;77.40;22.02;;;17.30;47.30;;;;;;5003239;28;20082;-65
2023/11/03 07:50:57;;;;;;;77.35;23.30;;;17.30;47.50;;;;;;4998139;28;20081;-66
2023/11/03 07:53:23;;;;;;;75.68;23.73;;;17.30;47.50;;;;;;4999090;28;20081;-64
2023/11/03 07:55:50;;;;;;;73.75;21.30;;;17.20;47.70;;;;;;4998738;28;20131;-64
2023/11/03 07:58:17;;;;;;;71.72;22.38;;;17.20;47.70;;;;;;4997513;28;20184;-66
2023/11/03 08:00:44;;;;;;;73.40;24.17;;;17.20;47.80;;;;;;4994794;28;20108;-66
2023/11/03 08:03:12;;;;;;;76.15;22.50;;;17.10;47.90;;;;;;4998942;28;20077;-65
2023/11/03 08:05:39;;;;;;;75.53;23.10;;;17.20;47.90;;;;;;4999917;28;20460;-65
2023/11/03 08:08:06;;;;;;;67.70;21.52;;;17.00;47.90;;;;;;4997844;28;20085;-66
2023/11/03 08:10:33;;;;;;;56.25;19.60;;;17.00;48.30;;;;;;4996880;28;20097;-66
2023/11/03 08:12:59;;;;;;;54.20;19.10;;;16.90;48.10;;;;;;4999135;28;20100;-63
2023/11/03 08:15:27;;;;;;;50.33;18.02;;;17.00;48.10;;;;;;4999195;28;20128;-65
2023/11/03 08:17:53;;;;;;;67.45;19.48;;;16.90;47.50;;;;;;4996510;28;20605;-65
2023/11/03 08:20:20;;;;;;;62.15;18.63;;;16.90;47.40;;;;;;4999788;28;20167;-64
2023/11/03 08:22:48;;;;;;;63.78;18.92;;;16.90;47.40;;;;;;4996111;28;20160;-65
2023/11/03 08:25:14;;;;;;;47.63;17.73;;;16.80;47.90;;;;;;5000543;28;20425;-65
2023/11/03 08:27:41;;;;;;;58.65;18.52;;;16.70;48.30;;;;;;4996350;28;20226;-64
2023/11/03 08:30:10;;;;;;;64.40;19.58;;;16.80;48.50;;;;;;5019393;28;20089;-65
2023/11/03 08:32:37;;;;;;;55.85;18.92;;;16.70;48.20;;;;;;5000755;28;20088;-65
2023/11/03 08:35:05;;;;;;;54.28;18.30;;;16.70;48.20;;;;;;4998220;28;20109;-65
2023/11/03 08:37:32;;;;;;;45.50;19.17;;;16.70;48.10;;;;;;5000417;28;20095;-65
2023/11/03 08:40:02;;;;;;;64.38;20.20;;;16.70;48.10;;;;;;5001976;28;20085;-66
2023/11/03 08:42:29;;;;;;;58.42;18.58;;;16.60;48.90;;;;;;5002701;28;20658;-65
2023/11/03 08:44:55;;;;;;;62.25;19.95;;;16.50;48.70;;;;;;4993704;28;20436;-65
2023/11/03 08:47:22;;;;;;;60.65;21.08;;;16.50;48.50;;;;;;4993511;28;20085;-65
2023/11/03 08:49:48;;;;;;;67.07;20.35;;;16.50;48.70;;;;;;5000236;28;20114;-64
2023/11/03 08:52:15;;;;;;;65.45;20.52;;;16.40;48.60;;;;;;5002561;28;20085;-65
2023/11/03 08:54:41;;;;;;;68.03;21.42;;;16.40;48.60;;;;;;5002060;28;20081;-65
2023/11/03 08:57:09;;;;;;;58.40;20.95;;;16.40;49.30;;;;;;4998289;28;20195;-67
2023/11/03 08:59:37;;;;;;;64.45;19.58;;;16.40;48.70;;;;;;4999093;28;20495;-66
2023/11/03 09:02:04;;;;;;;58.53;18.92;;;16.40;47.10;;;;;;4998250;28;20089;-65
2023/11/03 09:04:30;;;;;;;49.25;16.67;;;16.30;46.60;;;;;;5003827;28;20447;-65
2023/11/03 09:06:57;;;;;;;41.40;14.00;;;16.40;46.50;;;;;;4998312;28;20085;-65
2023/11/03 09:09:23;;;;;;;37.28;13.00;;;16.50;42.50;;;;;;5002673;28;20072;-64
2023/11/03 09:11:50;;;;;;;37.80;12.52;;;16.60;42.00;;;;;;5000133;28;20624;-64
2023/11/03 09:14:16;;;;;;;30.13;11.10;;;16.60;40.80;;;;;;5001358;28;20081;-66
2023/11/03 09:16:42;;;;;;;24.52;9.50;;;16.60;39.80;;;;;;4993903;28;20092;-65
2023/11/03 09:19:09;;;;;;;38.97;10.77;;;16.70;40.00;;;;;;4993060;28;20127;-65
2023/11/03 09:21:35;;;;;;;29.95;10.93;;;16.80;37.20;;;;;;5002532;28;20072;-65
2023/11/03 09:24:03;;;;;;;39.47;11.38;;;16.80;36.30;;;;;;4995604;28;20085;-67
2023/11/03 09:26:30;;;;;;;32.17;10.55;;;16.90;35.50;;;;;;5001803;28;20099;-65
2023/11/03 09:28:56;;;;;;;30.20;11.30;;;17.00;35.30;;;;;;4998524;28;20163;-67
2023/11/03 09:31:23;;;;;;;30.67;11.88;;;17.10;34.30;;;;;;5002300;28;20548;-66
2023/11/03 09:33:49;;;;;;;30.50;11.32;;;17.10;34.70;;;;;;4999390;28;20080;-66
2023/11/03 09:36:16;;;;;;;30.25;12.75;;;17.10;35.50;;;;;;5002405;28;20088;-66
2023/11/03 09:38:42;;;;;;;29.58;11.68;;;17.00;35.30;;;;;;5005602;28;20088;-65
2023/11/03 09:41:12;;;;;;;29.25;9.82;;;17.00;36.90;;;;;;5002669;28;20601;-66
2023/11/03 09:43:41;;;;;;;38.15;12.25;;;17.00;37.00;;;;;;5005011;28;20073;-67
2023/11/03 09:46:08;;;;;;;27.00;11.07;;;16.90;36.80;;;;;;5005288;28;20458;-67
2023/11/03 09:48:35;;;;;;;34.95;10.77;;;16.90;37.20;;;;;;4996133;28;20551;-66
2023/11/03 09:51:06;;;;;;;35.15;11.07;;;16.90;37.30;;;;;;5002141;28;20131;-67
2023/11/03 09:53:36;;;;;;;26.30;9.63;;;16.90;37.60;;;;;;4997398;28;20115;-65
2023/11/03 09:56:04;;;;;;;23.67;9.55;;;16.80;38.00;;;;;;5002757;28;20191;-65
2023/11/03 09:58:32;;;;;;;27.55;10.18;;;16.80;37.60;;;;;;5000648;28;20111;-66
2023/11/03 10:01:01;;;;;;;25.08;9.00;;;16.70;38.50;;;;;;5001197;28;20454;-66
2023/11/03 10:03:27;;;;;;;19.83;9.38;;;16.70;38.70;;;;;;4999195;28;20484;-66
2023/11/03 10:05:55;;;;;;;32.03;8.85;;;16.60;38.40;;;;;;4996509;28;20084;-66
2023/11/03 10:08:23;;;;;;;35.97;9.20;;;16.60;38.30;;;;;;5007132;28;20103;-69
2023/11/03 10:10:50;;;;;;;22.25;8.38;;;16.50;39.30;;;;;;5000176;28;20175;-72
2023/11/03 10:13:17;;;;;;;27.98;9.20;;;16.60;39.00;;;;;;5001942;28;20080;-70
2023/11/03 10:15:44;;;;;;;29.38;8.43;;;16.70;39.00;;;;;;5002643;28;20072;-68
2023/11/03 10:18:11;;;;;;;23.80;9.10;;;16.80;38.60;;;;;;4999885;28;20089;-68
2023/11/03 10:20:41;;;;;;;26.73;9.90;;;16.80;38.30;;;;;;5017875;28;20563;-68
2023/11/03 10:23:07;;;;;;;26.50;8.95;;;16.90;38.30;;;;;;5002879;28;20100;-68
2023/11/03 10:25:35;;;;;;;26.42;8.52;;;16.90;38.70;;;;;;4996040;28;20102;-67
2023/11/03 10:28:02;;;;;;;25.00;8.77;;;16.80;38.90;;;;;;5003529;28;20439;-68
2023/11/03 10:30:29;;;;;;;25.73;9.07;;;16.80;39.50;;;;;;4998881;28;20462;-68
2023/11/03 10:32:56;;;;;;;34.35;9.68;;;16.90;39.70;;;;;;5005704;28;20080;-67
2023/11/03 10:35:22;;;;;;;31.55;9.07;;;16.80;39.50;;;;;;5002464;28;20076;-67
2023/11/03 10:37:49;;;;;;;30.70;8.80;;;16.80;39.50;;;;;;5000278;28;20150;-66
2023/11/03 10:40:16;;;;;;;21.73;9.13;;;16.70;40.30;;;;;;4999457;28;20126;-67
2023/11/03 10:42:50;;;;;;;24.38;9.15;;;16.70;41.40;;;;;;4999321;28;20134;-67
2023/11/03 10:45:20;;;;;;;33.42;10.05;;;16.70;40.80;;;;;;4999840;28;20088;-67
2023/11/03 10:48:05;;;;;;;40.00;10.70;;;16.70;40.60;;;;;;5002228;28;20156;-68
2023/11/03 10:50:35;;;;;;;50.65;12.40;;;16.70;40.80;;;;;;5001396;28;20092;-68
2023/11/03 10:53:23;;;;;;;37.10;11.20;;;16.70;40.40;;;;;;5002226;28;20135;-70
2023/11/03 10:56:00;;;;;;;30.02;10.38;;;16.70;39.70;;;;;;5002923;28;20119;-68
2023/11/03 10:58:27;;;;;;;27.00;9.82;;;16.70;39.10;;;;;;4999887;28;20127;-69
2023/11/03 11:01:22;;;;;;;34.10;11.23;;;16.70;39.10;;;;;;4997552;28;20084;-71
2023/11/03 11:04:04;;;;;;;33.50;11.20;;;16.60;39.00;;;;;;4997931;28;20085;-68
2023/11/03 11:06:37;;;;;;;24.67;10.48;;;16.60;40.10;;;;;;4995580;28;20096;-69
2023/11/03 11:09:22;;;;;;;39.70;11.65;;;16.60;39.80;;;;;;4999866;28;20135;-68
2023/11/03 11:11:48;;;;;;;29.15;11.20;;;16.50;39.40;;;;;;5002797;28;20481;-70
2023/11/03 11:14:26;;;;;;;38.05;13.00;;;16.50;40.40;;;;;;5000196;28;20089;-68
2023/11/03 11:16:56;;;;;;;29.48;16.73;;;16.50;40.20;;;;;;5000638;28;20134;-68
2023/11/03 11:19:42;;;;;;;43.72;18.15;;;16.50;40.50;;;;;;5006635;28;20091;-68
2023/11/03 11:22:12;;;;;;;35.33;17.42;;;16.50;39.40;;;;;;4994799;28;20091;-67
2023/11/03 11:24:40;;;;;;;40.28;16.98;;;16.50;38.80;;;;;;5003348;28;20138;-68
2023/11/03 11:27:20;;;;;;;43.08;16.45;;;16.30;39.10;;;;;;4997587;28;20636;-69
2023/11/03 11:30:00;;;;;;;35.70;13.88;;;16.20;39.30;;;;;;4999929;28;20111;-68
2023/11/03 11:32:27;;;;;;;30.80;14.43;;;16.10;39.20;;;;;;5007701;28;20610;-69
2023/11/03 11:34:56;;;;;;;30.67;14.52;;;16.10;39.60;;;;;;5001766;28;20079;-68
2023/11/03 11:37:31;;;;;;;23.98;12.43;;;16.20;40.10;;;;;;4994356;28;20187;-68
2023/11/03 11:40:02;;;;;;;33.55;15.63;;;16.20;39.60;;;;;;5006260;28;20081;-67
2023/11/03 11:42:31;;;;;;;28.83;15.35;;;16.20;39.20;;;;;;5002286;28;20087;-67
2023/11/03 11:45:01;;;;;;;28.20;14.35;;;16.10;39.10;;;;;;4993555;28;20117;-69
2023/11/03 11:47:30;;;;;;;27.58;15.07;;;16.10;39.80;;;;;;5001960;28;20084;-69
2023/11/03 11:49:57;;;;;;;34.92;15.00;;;16.10;39.90;;;;;;5001772;28;20111;-71
2023/11/03 11:52:25;;;;;;;27.27;14.35;;;16.10;38.90;;;;;;4997974;28;20182;-68
2023/11/03 11:54:56;;;;;;;28.35;14.07;;;16.10;37.80;;;;;;4999635;28;20671;-71
2023/11/03 11:57:27;;;;;;;24.75;13.73;;;16.10;37.50;;;;;;5004258;28;20112;-72
2023/11/03 11:59:55;;;;;;;25.48;12.73;;;16.10;37.00;;;;;;4998428;28;20080;-68
2023/11/03 12:02:22;;;;;;;21.33;12.30;;;16.10;36.60;;;;;;4994641;28;20103;-66
2023/11/03 12:04:50;;;;;;;21.23;11.23;;;16.20;36.00;;;;;;5002966;28;20079;-71
2023/11/03 12:07:22;;;;;;;18.92;11.40;;;16.20;35.60;;;;;;5004506;28;20081;-69
2023/11/03 12:09:54;;;;;;;21.45;12.43;;;16.20;35.30;;;;;;5003213;28;20072;-68
2023/11/03 12:12:24;;;;;;;23.33;13.40;;;16.20;34.80;;;;;;4997697;28;20085;-70
2023/11/03 12:14:54;;;;;;;31.48;21.67;;;16.20;34.70;;;;;;5004330;28;20086;-69
2023/11/03 12:17:21;;;;;;;33.05;23.00;;;16.20;33.20;;;;;;5000594;28;20099;-70
2023/11/03 12:19:51;;;;;;;27.38;19.55;;;16.30;32.30;;;;;;4995108;28;20068;-72
2023/11/03 12:22:21;;;;;;;31.10;19.58;;;16.30;32.10;;;;;;5002727;28;20073;-69
2023/11/03 12:24:54;;;;;;;32.47;18.77;;;16.30;32.40;;;;;;5001897;28;20072;-69
2023/11/03 12:27:22;;;;;;;44.97;20.55;;;16.30;33.20;;;;;;4996151;28;20159;-69
2023/11/03 12:29:51;;;;;;;70.20;21.67;;;16.40;33.90;;;;;;4993318;28;20111;-68
2023/11/03 12:32:18;;;;;;;53.00;20.13;;;16.30;35.40;;;;;;5002169;28;20080;-67